Time;durP1;ratioP1;P1;durP2;ratioP2;P2;SDS_P1;SDS_P2;PMS_P1;PMS_P2;Temp;Humidity;BMP_temperature;BMP_pressure;BME280_temperature;BME280_humidity;BME280_pressure;Samples;Min_cycle;Max_cycle;Signal;HPM_P1;HPM_P2
2021/05/23 13:53:42;;;;;;;;;;;;;;;23.37;49.45;101387.31;5108556;27;1631;-78
2021/05/23 13:56:07;;;;;;;;;;;;;;;23.39;49.79;101382.31;5107470;28;1326;-79
2021/05/23 13:58:33;;;;;;;;;;;;;;;23.37;50.01;101385.38;5111657;28;1213;-78
2021/05/23 14:00:58;;;;;;;;;;;;;;;23.39;50.00;101377.63;5099595;28;862;-78
2021/05/23 14:03:24;;;;;;;;;;;;;;;23.40;50.35;101383.94;5122267;28;1537;-73
2021/05/23 14:05:54;;;;;;;;;;;;;;;23.50;50.97;101372.78;5099812;28;2000;-86
2021/05/23 14:08:20;;;;;;;;;;;;;;;23.57;50.88;101376.00;5109104;28;1542;-87
2021/05/23 14:10:45;;;;;;;;;;;;;;;23.59;51.63;101372.94;5103001;28;1486;-83
2021/05/23 14:13:10;;;;;;;;;;;;;;;23.59;52.07;101361.94;5089441;28;1918;-86
2021/05/23 14:15:37;;;;;;;;;;;;;;;23.61;52.23;101363.28;5108267;28;1176;-77
2021/05/23 14:18:05;;;;;;;;;;;;;;;23.65;52.48;101363.50;5095276;28;1491;-80
2021/05/23 14:20:31;;;;;;;;;;;;;;;23.64;52.63;101365.44;5101859;28;1518;-82
2021/05/23 14:22:56;;;;;;;;;;;;;;;23.65;53.26;101358.81;5113132;28;1339;-81
2021/05/23 14:25:22;;;;;;;;;;;;;;;23.70;53.31;101361.50;5102067;28;1520;-82
2021/05/23 14:27:47;;;;;;;;;;;;;;;23.73;53.40;101352.63;5106170;28;1262;-80
2021/05/23 14:30:13;;;;;;;;;;;;;;;23.79;53.62;101345.13;5113075;28;1387;-81
2021/05/23 14:32:38;;;;;;;;;;;;;;;23.81;53.67;101345.66;5093360;28;1597;-86
2021/05/23 14:35:04;;;;;;;;;;;;;;;23.81;53.96;101347.59;5105069;28;1555;-86
2021/05/23 14:37:30;;;;;;;;;;;;;;;23.80;54.07;101343.19;5111951;28;1280;-85
2021/05/23 14:39:55;;;;;;;;;;;;;;;23.84;54.32;101344.22;5094481;28;1564;-85
2021/05/23 14:42:20;;;;;;;;;;;;;;;23.83;54.18;101337.91;5107314;28;1873;-86
2021/05/23 14:44:46;;;;;;;;;;;;;;;23.86;54.17;101337.28;5107266;28;1195;-85
2021/05/23 14:47:11;;;;;;;;;;;;;;;23.90;54.26;101348.50;5107852;28;1392;-86
2021/05/23 14:49:48;;;;;;;;;;;;;;;23.89;54.43;101338.63;5107205;28;1448;-85
2021/05/23 14:52:14;;;;;;;;;;;;;;;23.91;54.39;101330.91;5108290;28;1144;-85
2021/05/23 14:54:39;;;;;;;;;;;;;;;23.87;54.50;101335.38;5077277;28;1485;-75
2021/05/23 14:57:04;;;;;;;;;;;;;;;23.87;54.85;101335.38;5052357;28;1687;-75
2021/05/23 14:59:30;;;;;;;;;;;;;;;23.84;56.02;101324.97;5075336;28;1745;-76
2021/05/23 15:01:55;;;;;;;;;;;;;;;23.82;55.87;101332.69;5075485;28;1990;-75
2021/05/23 15:04:20;;;;;;;;;;;;;;;23.83;55.18;101332.41;5076471;28;910;-75
2021/05/23 15:06:45;;;;;;;;;;;;;;;23.81;55.08;101334.63;5061402;28;1881;-74
2021/05/23 15:09:11;;;;;;;;;;;;;;;23.88;54.98;101331.50;5058923;28;1622;-84
2021/05/23 15:11:36;;;;;;;;;;;;;;;23.91;54.72;101330.91;5047468;28;1993;-75
2021/05/23 15:14:01;;;;;;;;;;;;;;;23.91;54.70;101325.41;5061162;28;1844;-76
2021/05/23 15:16:27;;;;;;;;;;;;;;;23.88;54.89;101335.06;5058599;28;2116;-72
2021/05/23 15:18:52;;;;;;;;;;;;;;;23.92;54.65;101327.84;5059600;28;1475;-75
2021/05/23 15:21:18;;;;;;;;;;;;;;;23.95;54.51;101331.94;5060550;28;1882;-78
2021/05/23 15:23:43;;;;;;;;;;;;;;;23.92;54.80;101330.59;5067124;28;890;-75
2021/05/23 15:26:18;;;;;;;;;;;;;;;23.91;54.47;101328.16;5064256;28;2166;-78
2021/05/23 15:31:27;;;;;;;;;;;;;;;23.91;55.51;101336.41;5060349;28;871;-75
2021/05/23 15:33:53;;;;;;;;;;;;;;;23.89;55.64;101328.44;5051050;28;941;-75
2021/05/23 15:36:19;;;;;;;;;;;;;;;23.90;56.90;101326.50;5051850;28;1742;-74
2021/05/23 15:38:44;;;;;;;;;;;;;;;23.90;56.49;101324.59;5059332;28;810;-75
2021/05/23 15:41:10;;;;;;;;;;;;;;;23.94;56.63;101327.53;5055593;28;912;-86
2021/05/23 15:43:35;;;;;;;;;;;;;;;23.96;56.63;101328.03;5057960;28;1867;-75
2021/05/23 15:46:01;;;;;;;;;;;;;;;23.93;56.51;101326.72;5060068;28;1785;-75
2021/05/23 15:48:26;;;;;;;;;;;;;;;23.90;56.49;101324.59;5060974;28;1705;-75
2021/05/23 15:50:52;;;;;;;;;;;;;;;23.90;56.34;101329.25;5041995;28;1996;-75
2021/05/23 15:53:17;;;;;;;;;;;;;;;23.88;56.35;101339.75;5081171;28;1748;-75
2021/05/23 15:55:42;;;;;;;;;;;;;;;23.88;56.39;101339.75;5075228;28;988;-75
2021/05/23 15:58:08;;;;;;;;;;;;;;;23.87;56.44;101330.69;5070532;28;799;-75
2021/05/23 16:00:33;;;;;;;;;;;;;;;23.89;56.26;101335.88;5076468;28;1764;-72
2021/05/23 17:51:39;;;;;;;;;;;;;;;24.18;55.55;101407.19;5085951;27;2604;-74
2021/05/23 17:54:04;;;;;;;;;;;;;;;24.20;55.04;101402.19;5086323;28;877;-75
2021/05/23 17:56:30;;;;;;;;;;;;;;;24.21;53.22;101397.53;5085277;28;1603;-75
2021/05/23 17:58:55;;;;;;;;;;;;;;;24.22;53.90;101401.88;5084374;28;1618;-75
2021/05/23 18:01:21;;;;;;;;;;;;;;;24.20;53.95;101402.19;5084156;28;1451;-75
2021/05/23 18:03:46;;;;;;;;;;;;;;;24.20;54.01;101413.19;5086056;28;782;-75
2021/05/23 18:06:12;;;;;;;;;;;;;;;24.18;53.05;101415.44;5086196;28;837;-75
2021/05/23 18:08:38;;;;;;;;;;;;;;;24.16;52.57;101419.63;5086020;28;926;-75
2021/05/23 18:11:04;;;;;;;;;;;;;;;24.15;52.61;101415.22;5083944;28;1922;-75
2021/05/23 18:13:30;;;;;;;;;;;;;;;24.13;52.72;101430.13;5084580;28;1452;-75
2021/05/23 18:15:56;;;;;;;;;;;;;;;24.12;52.58;101422.16;5084488;28;1717;-75
2021/05/23 18:18:21;;;;;;;;;;;;;;;24.09;52.33;101423.56;4988197;28;13110;-75
2021/05/23 18:20:46;;;;;;;;;;;;;;;24.08;52.13;101443.13;5045234;28;1246;-74
2021/05/23 18:23:12;;;;;;;;;;;;;;;24.06;51.92;101454.44;5044345;28;1490;-75
2021/05/23 18:25:37;;;;;;;;;;;;;;;24.03;51.77;101443.25;5044248;28;1450;-75
2021/05/23 18:28:03;;;;;;;;;;;;;;;24.00;51.51;101447.38;5044581;28;1521;-74
2021/05/23 18:30:32;;;;;;;;;;;;;;;24.00;51.76;101441.06;5044518;28;1973;-75
2021/05/23 18:32:58;;;;;;;;;;;;;;;23.98;52.03;101446.88;5040801;28;1516;-75
2021/05/23 18:35:23;;;;;;;;;;;;;;;23.99;52.32;101445.78;5048019;28;846;-78
2021/05/23 18:37:49;;;;;;;;;;;;;;;24.01;53.21;101454.53;5046797;28;959;-74
2021/05/23 18:40:22;;;;;;;;;;;;;;;24.08;52.87;101452.19;5045592;28;1622;-74
2021/05/23 18:42:47;;;;;;;;;;;;;;;24.15;52.62;101453.75;5083500;28;3071;-74
2021/05/23 18:45:13;;;;;;;;;;;;;;;24.20;52.27;101457.22;5058099;28;2695;-74
2021/05/23 18:47:39;;;;;;;;;;;;;;;24.23;52.21;101453.91;5053687;28;2506;-74
2021/05/23 18:50:06;;;;;;;;;;;;;;;24.28;52.51;101464.81;5061161;28;1945;-74
2021/05/23 18:52:32;;;;;;;;;;;;;;;24.32;52.05;101463.06;5047710;28;1867;-74
2021/05/23 18:54:58;;;;;;;;;;;;;;;24.38;52.44;101463.81;5052328;28;1436;-74
2021/05/23 18:57:24;;;;;;;;;;;;;;;24.45;52.38;101460.69;5057924;28;1417;-75
2021/05/23 18:59:50;;;;;;;;;;;;;;;24.50;52.62;101471.63;5056272;28;2595;-75
2021/05/23 19:02:16;;;;;;;;;;;;;;;24.55;53.25;101467.94;5040816;28;1855;-75
2021/05/23 19:04:41;;;;;;;;;;;;;;;24.56;53.04;101470.41;5048833;28;1660;-75
2021/05/23 19:07:06;;;;;;;;;;;;;;;24.61;52.74;101472.25;5044772;28;1567;-75
2021/05/23 19:09:32;;;;;;;;;;;;;;;24.65;52.54;101471.34;5043421;28;1929;-75
2021/05/23 19:11:57;;;;;;;;;;;;;;;24.70;52.69;101475.94;5047828;28;1572;-75
2021/05/23 19:14:22;;;;;;;;;;;;;;;24.72;52.81;101473.69;5035382;28;1655;-75
2021/05/23 19:16:49;;;;;;;;;;;;;;;24.77;52.53;101473.59;5047284;28;1605;-74
2021/05/23 19:19:14;;;;;;;;;;;;;;;24.80;53.43;101470.22;5040601;28;1538;-74
2021/05/23 19:21:39;;;;;;;;;;;;;;;24.81;54.20;101455.34;5040291;28;1549;-72
2021/05/23 19:24:05;;;;;;;;;;;;;;;24.85;53.87;101459.13;5047779;28;1609;-72
2021/05/23 19:26:30;;;;;;;;;;;;;;;24.89;53.02;101462.06;5031396;28;1729;-72
2021/05/23 19:28:56;;;;;;;;;;;;;;;24.87;52.30;101465.13;5037930;28;1476;-72
2021/05/23 19:31:21;;;;;;;;;;;;;;;24.87;53.39;101467.06;5038980;28;1949;-73
2021/05/23 19:33:47;;;;;;;;;;;;;;;24.88;52.40;101457.69;5030458;28;1744;-73
2021/05/23 19:36:14;;;;;;;;;;;;;;;24.87;51.71;101458.78;5030548;28;2479;-73
2021/05/23 19:38:39;;;;;;;;;;;;;;;24.87;51.73;101450.53;5033552;28;2031;-73
2021/05/23 19:41:04;;;;;;;;;;;;;;;24.87;51.32;101451.34;5027500;28;1932;-73
2021/05/23 19:43:30;;;;;;;;;;;;;;;24.88;51.43;101449.41;5030402;28;1699;-73
2021/05/23 19:45:55;;;;;;;;;;;;;;;24.87;51.13;101439.50;5030391;28;1769;-73
2021/05/23 19:48:21;;;;;;;;;;;;;;;24.87;51.16;101447.75;5040575;28;1745;-73
2021/05/23 19:50:47;;;;;;;;;;;;;;;24.87;51.07;101442.25;5031350;28;2007;-73
2021/05/23 19:53:12;;;;;;;;;;;;;;;24.88;50.94;101441.94;5031297;28;1602;-73
2021/05/23 19:55:37;;;;;;;;;;;;;;;24.88;50.85;101441.94;5029330;28;1806;-72
2021/05/23 19:58:03;;;;;;;;;;;;;;;24.88;50.88;101449.41;5030125;28;1944;-73
2021/05/23 20:00:28;;;;;;;;;;;;;;;24.84;50.68;101446.44;5031827;28;1409;-73
2021/05/23 20:02:54;;;;;;;;;;;;;;;24.86;50.83;101443.38;5031237;28;1726;-73
2021/05/23 20:05:19;;;;;;;;;;;;;;;24.83;50.83;101444.84;5031098;28;1392;-73
2021/05/23 20:07:46;;;;;;;;;;;;;;;24.84;50.79;101442.88;5030216;28;1694;-73
2021/05/23 20:10:15;;;;;;;;;;;;;;;24.84;51.08;101443.69;5029765;28;1977;-73
2021/05/23 20:12:41;;;;;;;;;;;;;;;24.87;52.94;101442.25;5035850;28;1163;-78
2021/05/23 20:15:07;;;;;;;;;;;;;;;24.95;53.44;101443.47;5043637;28;1591;-74
2021/05/23 20:17:33;;;;;;;;;;;;;;;24.89;54.34;101438.09;5042282;28;1535;-74
2021/05/23 20:19:58;;;;;;;;;;;;;;;24.84;54.68;101434.63;5036867;28;1620;-74
2021/05/23 20:22:25;;;;;;;;;;;;;;;24.83;54.60;101442.06;5046948;28;1540;-72
2021/05/23 20:24:50;;;;;;;;;;;;;;;24.81;54.80;101446.22;5036727;28;1654;-73
2021/05/23 20:27:15;;;;;;;;;;;;;;;24.79;54.76;101440.22;5042665;28;1173;-73
2021/05/23 20:29:41;;;;;;;;;;;;;;;24.77;54.92;101447.97;5043609;28;1918;-73
2021/05/23 20:32:08;;;;;;;;;;;;;;;24.72;55.29;101446.13;5035751;28;1505;-74
2021/05/23 20:34:33;;;;;;;;;;;;;;;24.71;55.44;101436.25;5047718;28;1607;-74
2021/05/23 20:36:59;;;;;;;;;;;;;;;24.66;55.62;101430.84;5036475;28;2785;-74
2021/05/23 20:39:24;;;;;;;;;;;;;;;24.65;55.96;101437.44;5040816;28;1614;-74
2021/05/23 20:41:49;;;;;;;;;;;;;;;24.62;56.20;101436.13;5044909;28;1234;-74
2021/05/23 20:44:15;;;;;;;;;;;;;;;24.62;56.55;101433.38;5034664;28;1594;-75
2021/05/23 20:46:40;;;;;;;;;;;;;;;24.59;56.53;101434.00;5036664;28;1426;-75
2021/05/23 20:49:05;;;;;;;;;;;;;;;24.58;56.82;101437.06;5043620;28;1598;-75
2021/05/23 20:51:31;;;;;;;;;;;;;;;24.57;57.01;101425.22;5030855;28;1903;-74
2021/05/23 20:53:57;;;;;;;;;;;;;;;24.54;56.88;101430.53;5030673;28;1491;-75
2021/05/23 20:56:22;;;;;;;;;;;;;;;24.52;57.24;101434.38;5031074;28;1586;-75
2021/05/23 20:58:47;;;;;;;;;;;;;;;24.53;57.35;101429.72;5030985;28;1631;-75
2021/05/23 21:01:13;;;;;;;;;;;;;;;24.49;57.56;101440.50;5013305;28;1577;-75
2021/05/23 21:03:38;;;;;;;;;;;;;;;24.50;57.32;101436.63;5030715;28;1586;-75
2021/05/23 21:06:04;;;;;;;;;;;;;;;24.50;57.27;101433.88;5030847;28;1507;-74
2021/05/23 21:08:33;;;;;;;;;;;;;;;24.47;57.37;101431.72;5030383;28;1500;-73
2021/05/23 21:10:58;;;;;;;;;;;;;;;24.47;57.40;101437.22;5012855;28;1954;-73
2021/05/23 21:13:23;;;;;;;;;;;;;;;24.48;57.88;101438.03;5030740;28;1496;-75
2021/05/23 21:15:49;;;;;;;;;;;;;;;24.51;57.96;101440.22;5030609;28;1650;-72
2021/05/23 21:18:14;;;;;;;;;;;;;;;24.50;58.47;101447.66;5030547;28;1574;-72
2021/05/23 21:20:40;;;;;;;;;;;;;;;24.50;58.47;101447.66;5030883;28;1451;-73
2021/05/23 21:23:05;;;;;;;;;;;;;;;24.50;58.41;101444.09;5030546;28;1565;-75
2021/05/23 21:25:31;;;;;;;;;;;;;;;24.51;57.61;101454.81;5030271;28;1222;-73
2021/05/23 21:27:56;;;;;;;;;;;;;;;24.51;58.47;101451.25;5030564;28;1507;-73
2021/05/23 21:30:21;;;;;;;;;;;;;;;24.50;58.78;101453.16;5021822;28;1906;-74
2021/05/23 21:32:47;;;;;;;;;;;;;;;24.47;58.81;101456.50;5030428;28;1655;-74
2021/05/23 21:35:12;;;;;;;;;;;;;;;24.46;58.68;101457.59;5030502;28;1576;-74
2021/05/23 21:37:38;;;;;;;;;;;;;;;24.45;58.59;101455.19;5028629;28;2772;-75
2021/05/23 21:40:04;;;;;;;;;;;;;;;24.45;58.78;101456.00;5030397;28;1620;-76
2021/05/23 21:42:29;;;;;;;;;;;;;;;24.46;58.89;101449.34;5012673;28;1595;-75
2021/05/23 21:44:55;;;;;;;;;;;;;;;24.46;58.85;101448.53;5030379;28;1632;-76
2021/05/23 21:47:20;;;;;;;;;;;;;;;24.45;58.72;101438.66;5030375;28;1509;-75
2021/05/23 21:49:45;;;;;;;;;;;;;;;24.45;58.86;101439.47;5030151;28;1903;-75
2021/05/23 21:52:10;;;;;;;;;;;;;;;24.44;58.75;101437.00;5030081;28;1286;-75
2021/05/23 21:54:36;;;;;;;;;;;;;;;24.44;59.30;101443.31;5030438;28;1517;-75
2021/05/23 21:57:02;;;;;;;;;;;;;;;24.45;59.53;101439.47;5030262;28;1612;-75
2021/05/23 21:59:27;;;;;;;;;;;;;;;24.44;59.55;101437.81;5030064;28;1570;-75
2021/05/23 22:01:52;;;;;;;;;;;;;;;24.44;59.57;101437.81;5030222;28;1502;-75
2021/05/23 22:04:18;;;;;;;;;;;;;;;24.44;59.76;101437.81;5012808;28;2040;-75
2021/05/23 22:06:43;;;;;;;;;;;;;;;24.42;59.63;101431.78;5029858;28;1296;-75
2021/05/23 22:09:08;;;;;;;;;;;;;;;24.43;59.89;101422.44;5023278;28;1511;-75
2021/05/23 22:11:34;;;;;;;;;;;;;;;24.45;60.15;101430.41;5028319;28;1910;-75
2021/05/23 22:13:59;;;;;;;;;;;;;;;24.43;59.91;101427.13;5029931;28;1521;-75
2021/05/23 22:16:24;;;;;;;;;;;;;;;24.42;60.27;101423.53;5029973;28;1549;-74
2021/05/23 22:18:50;;;;;;;;;;;;;;;24.42;60.44;101426.28;5030080;28;1551;-75
2021/05/23 22:21:15;;;;;;;;;;;;;;;24.45;60.95;101431.19;5029569;28;1542;-72
2021/05/23 22:23:41;;;;;;;;;;;;;;;24.49;61.20;101436.94;5029988;28;1131;-72
2021/05/23 22:26:06;;;;;;;;;;;;;;;24.49;61.06;101436.94;5030163;28;1390;-72
2021/05/23 22:28:32;;;;;;;;;;;;;;;24.48;61.25;101443.53;5029982;28;1597;-72
2021/05/23 22:30:58;;;;;;;;;;;;;;;24.47;60.89;101451.00;5030711;28;1903;-81
2021/05/23 22:33:24;;;;;;;;;;;;;;;24.50;60.66;101449.59;5013923;28;1345;-80
2021/05/23 22:35:49;;;;;;;;;;;;;;;24.50;60.83;101444.09;5012208;28;1515;-74
2021/05/23 22:38:14;;;;;;;;;;;;;;;24.49;60.91;101443.25;5031607;28;2788;-75
2021/05/23 22:40:40;;;;;;;;;;;;;;;24.49;60.74;101440.50;5015844;28;1583;-75
2021/05/23 22:43:06;;;;;;;;;;;;;;;24.51;60.38;101445.72;5033561;28;1546;-72
2021/05/23 22:45:32;;;;;;;;;;;;;;;24.50;60.34;101449.59;5027291;28;1514;-72
2021/05/23 22:47:57;;;;;;;;;;;;;;;24.50;60.37;101455.91;5027824;28;1670;-73
2021/05/23 22:50:33;;;;;;;;;;;;;;;24.50;60.20;101452.34;5032991;28;1898;-72
2021/05/23 22:52:59;;;;;;;;;;;;;;;24.48;60.13;101449.03;5033435;28;1587;-77
2021/05/23 22:55:24;;;;;;;;;;;;;;;24.49;59.70;101453.44;5033755;28;1643;-77
2021/05/23 22:57:50;;;;;;;;;;;;;;;24.48;59.82;101444.34;5033660;28;1534;-74
2021/05/23 23:00:23;;;;;;;;;;;;;;;24.48;59.73;101452.59;5033166;28;1647;-74
2021/05/23 23:02:51;;;;;;;;;;;;;;;24.49;59.83;101459.75;5033000;28;1216;-73
2021/05/23 23:05:16;;;;;;;;;;;;;;;24.49;59.66;101454.25;5032977;28;1783;-74
2021/05/23 23:07:41;;;;;;;;;;;;;;;24.49;59.59;101457.00;5032980;28;1646;-74
2021/05/23 23:10:07;;;;;;;;;;;;;;;24.49;59.28;101456.19;5015160;28;1935;-74
2021/05/23 23:12:32;;;;;;;;;;;;;;;24.49;59.54;101457.00;5029650;28;1700;-72
2021/05/23 23:14:57;;;;;;;;;;;;;;;24.49;59.58;101448.75;5019249;28;1292;-72
2021/05/23 23:17:23;;;;;;;;;;;;;;;24.49;59.56;101436.94;5032753;28;1527;-72
2021/05/23 23:19:48;;;;;;;;;;;;;;;24.47;59.49;101439.97;5017056;28;1384;-75
2021/05/23 23:22:13;;;;;;;;;;;;;;;24.49;59.78;101439.69;5014767;28;1483;-76
2021/05/23 23:24:39;;;;;;;;;;;;;;;24.36;60.16;101419.25;5013010;28;1602;-76
2021/05/23 23:27:04;;;;;;;;;;;;;;;24.51;60.54;101443.78;5008909;28;1665;-75
2021/05/23 23:29:29;;;;;;;;;;;;;;;24.51;60.78;101426.44;5013463;28;1883;-75
2021/05/23 23:31:55;;;;;;;;;;;;;;;24.50;60.82;101438.56;5012924;28;1599;-73
2021/05/23 23:34:20;;;;;;;;;;;;;;;24.51;61.41;101431.97;5011762;28;1737;-73
2021/05/23 23:36:45;;;;;;;;;;;;;;;24.50;61.80;101433.88;5012181;28;2559;-73
2021/05/23 23:39:10;;;;;;;;;;;;;;;24.50;61.61;101425.63;5014315;28;1654;-81
2021/05/23 23:41:36;;;;;;;;;;;;;;;24.50;61.91;101425.63;5014462;28;858;-80
2021/05/23 23:44:01;;;;;;;;;;;;;;;24.51;61.79;101435.53;4996970;28;1181;-81
2021/05/23 23:46:27;;;;;;;;;;;;;;;24.51;61.86;101434.72;5014466;28;912;-81
2021/05/23 23:48:52;;;;;;;;;;;;;;;24.50;61.81;101430.31;5013944;28;803;-81
2021/05/23 23:51:17;;;;;;;;;;;;;;;24.50;61.89;101420.09;5026981;28;1894;-81
2021/05/23 23:53:42;;;;;;;;;;;;;;;24.51;62.09;101416.25;5034682;28;865;-81
2021/05/23 23:56:08;;;;;;;;;;;;;;;24.49;61.64;101410.19;5032921;28;1244;-81
2021/05/23 23:58:33;;;;;;;;;;;;;;;24.51;61.73;101409.94;5034493;28;894;-81
